sensor_id;sensor_type;location;lat;lon;timestamp;P1;durP1;ratioP1;P2;durP2;ratioP2
17566;SDS011;8901;52.088;5.084;2023-02-28T00:01:14;6.13;;;5.50;;
17566;SDS011;8901;52.088;5.084;2023-02-28T00:03:41;7.07;;;5.80;;
17566;SDS011;8901;52.088;5.084;2023-02-28T00:06:08;5.87;;;5.37;;
17566;SDS011;8901;52.088;5.084;2023-02-28T00:08:37;5.83;;;5.30;;
17566;SDS011;8901;52.088;5.084;2023-02-28T00:11:06;6.47;;;5.87;;
17566;SDS011;8901;52.088;5.084;2023-02-28T00:13:36;7.33;;;5.20;;
17566;SDS011;8901;52.088;5.084;2023-02-28T00:16:06;5.80;;;5.30;;
17566;SDS011;8901;52.088;5.084;2023-02-28T00:18:34;6.73;;;5.30;;
17566;SDS011;8901;52.088;5.084;2023-02-28T00:21:01;5.73;;;5.20;;
17566;SDS011;8901;52.088;5.084;2023-02-28T00:23:28;5.53;;;5.03;;
17566;SDS011;8901;52.088;5.084;2023-02-28T00:25:57;8.93;;;5.47;;
17566;SDS011;8901;52.088;5.084;2023-02-28T00:28:24;5.63;;;5.10;;
17566;SDS011;8901;52.088;5.084;2023-02-28T00:30:52;5.43;;;5.00;;
17566;SDS011;8901;52.088;5.084;2023-02-28T00:33:19;5.60;;;5.10;;
17566;SDS011;8901;52.088;5.084;2023-02-28T00:35:46;5.87;;;5.30;;
17566;SDS011;8901;52.088;5.084;2023-02-28T00:38:19;6.47;;;5.90;;
17566;SDS011;8901;52.088;5.084;2023-02-28T00:40:51;5.57;;;5.13;;
17566;SDS011;8901;52.088;5.084;2023-02-28T00:43:21;6.20;;;5.63;;
17566;SDS011;8901;52.088;5.084;2023-02-28T00:45:48;9.20;;;5.63;;
17566;SDS011;8901;52.088;5.084;2023-02-28T00:48:16;6.00;;;4.90;;
17566;SDS011;8901;52.088;5.084;2023-02-28T00:50:43;6.33;;;5.47;;
17566;SDS011;8901;52.088;5.084;2023-02-28T00:53:13;5.60;;;5.20;;
17566;SDS011;8901;52.088;5.084;2023-02-28T00:55:41;5.53;;;5.17;;
17566;SDS011;8901;52.088;5.084;2023-02-28T00:58:08;6.43;;;5.10;;
17566;SDS011;8901;52.088;5.084;2023-02-28T01:00:36;8.60;;;6.50;;
17566;SDS011;8901;52.088;5.084;2023-02-28T01:03:04;5.83;;;5.30;;
17566;SDS011;8901;52.088;5.084;2023-02-28T01:05:31;5.67;;;5.27;;
17566;SDS011;8901;52.088;5.084;2023-02-28T01:08:00;5.97;;;5.43;;
17566;SDS011;8901;52.088;5.084;2023-02-28T01:10:27;10.40;;;5.57;;
17566;SDS011;8901;52.088;5.084;2023-02-28T01:13:02;6.23;;;5.63;;
17566;SDS011;8901;52.088;5.084;2023-02-28T01:15:30;5.67;;;5.17;;
17566;SDS011;8901;52.088;5.084;2023-02-28T01:17:59;6.23;;;5.70;;
17566;SDS011;8901;52.088;5.084;2023-02-28T01:20:26;6.23;;;5.43;;
17566;SDS011;8901;52.088;5.084;2023-02-28T01:22:54;6.20;;;5.70;;
17566;SDS011;8901;52.088;5.084;2023-02-28T01:25:21;5.77;;;5.33;;
17566;SDS011;8901;52.088;5.084;2023-02-28T01:27:48;6.03;;;5.53;;
17566;SDS011;8901;52.088;5.084;2023-02-28T01:30:27;6.63;;;6.03;;
17566;SDS011;8901;52.088;5.084;2023-02-28T01:32:57;7.10;;;5.73;;
17566;SDS011;8901;52.088;5.084;2023-02-28T01:35:25;6.30;;;5.80;;
17566;SDS011;8901;52.088;5.084;2023-02-28T01:37:59;6.83;;;6.13;;
17566;SDS011;8901;52.088;5.084;2023-02-28T01:40:27;8.20;;;6.47;;
17566;SDS011;8901;52.088;5.084;2023-02-28T01:42:54;7.13;;;6.03;;
17566;SDS011;8901;52.088;5.084;2023-02-28T01:45:22;6.60;;;6.00;;
17566;SDS011;8901;52.088;5.084;2023-02-28T01:47:52;8.00;;;6.80;;
17566;SDS011;8901;52.088;5.084;2023-02-28T01:50:20;8.80;;;7.47;;
17566;SDS011;8901;52.088;5.084;2023-02-28T01:52:49;7.43;;;6.77;;
17566;SDS011;8901;52.088;5.084;2023-02-28T01:55:17;7.40;;;6.80;;
17566;SDS011;8901;52.088;5.084;2023-02-28T01:57:50;7.00;;;6.47;;
17566;SDS011;8901;52.088;5.084;2023-02-28T02:00:20;7.00;;;6.43;;
17566;SDS011;8901;52.088;5.084;2023-02-28T02:02:48;6.83;;;6.27;;
17566;SDS011;8901;52.088;5.084;2023-02-28T02:05:17;9.57;;;6.80;;
17566;SDS011;8901;52.088;5.084;2023-02-28T02:07:45;6.77;;;6.30;;
17566;SDS011;8901;52.088;5.084;2023-02-28T02:10:15;7.80;;;6.03;;
17566;SDS011;8901;52.088;5.084;2023-02-28T02:12:47;6.80;;;6.10;;
17566;SDS011;8901;52.088;5.084;2023-02-28T02:15:19;7.07;;;6.13;;
17566;SDS011;8901;52.088;5.084;2023-02-28T02:17:50;6.43;;;5.80;;
17566;SDS011;8901;52.088;5.084;2023-02-28T02:20:32;8.63;;;5.80;;
17566;SDS011;8901;52.088;5.084;2023-02-28T02:23:14;9.37;;;5.43;;
17566;SDS011;8901;52.088;5.084;2023-02-28T02:25:45;6.23;;;5.63;;
17566;SDS011;8901;52.088;5.084;2023-02-28T02:28:22;5.70;;;5.20;;
17566;SDS011;8901;52.088;5.084;2023-02-28T02:34:02;5.40;;;4.97;;
17566;SDS011;8901;52.088;5.084;2023-02-28T02:36:33;5.70;;;5.13;;
17566;SDS011;8901;52.088;5.084;2023-02-28T02:39:02;5.47;;;5.07;;
17566;SDS011;8901;52.088;5.084;2023-02-28T02:41:34;6.20;;;5.27;;
17566;SDS011;8901;52.088;5.084;2023-02-28T02:44:03;5.93;;;5.33;;
17566;SDS011;8901;52.088;5.084;2023-02-28T02:46:32;8.80;;;4.97;;
17566;SDS011;8901;52.088;5.084;2023-02-28T02:49:03;6.70;;;5.40;;
17566;SDS011;8901;52.088;5.084;2023-02-28T02:51:31;6.70;;;5.83;;
17566;SDS011;8901;52.088;5.084;2023-02-28T02:54:00;6.33;;;5.73;;
17566;SDS011;8901;52.088;5.084;2023-02-28T02:56:29;6.40;;;5.80;;
17566;SDS011;8901;52.088;5.084;2023-02-28T02:58:59;7.30;;;6.50;;
17566;SDS011;8901;52.088;5.084;2023-02-28T03:01:28;6.83;;;6.23;;
17566;SDS011;8901;52.088;5.084;2023-02-28T03:03:56;6.97;;;6.37;;
17566;SDS011;8901;52.088;5.084;2023-02-28T03:06:25;7.47;;;5.90;;
17566;SDS011;8901;52.088;5.084;2023-02-28T03:08:52;5.93;;;5.43;;
17566;SDS011;8901;52.088;5.084;2023-02-28T03:11:20;6.77;;;5.60;;
17566;SDS011;8901;52.088;5.084;2023-02-28T03:13:52;6.27;;;5.50;;
17566;SDS011;8901;52.088;5.084;2023-02-28T03:16:35;9.87;;;6.60;;
17566;SDS011;8901;52.088;5.084;2023-02-28T03:19:05;6.60;;;6.00;;
17566;SDS011;8901;52.088;5.084;2023-02-28T03:21:37;6.60;;;5.90;;
17566;SDS011;8901;52.088;5.084;2023-02-28T03:24:06;6.67;;;5.97;;
17566;SDS011;8901;52.088;5.084;2023-02-28T03:26:36;6.93;;;6.10;;
17566;SDS011;8901;52.088;5.084;2023-02-28T03:29:06;7.57;;;6.30;;
17566;SDS011;8901;52.088;5.084;2023-02-28T03:31:38;6.70;;;6.00;;
17566;SDS011;8901;52.088;5.084;2023-02-28T03:34:08;7.60;;;6.90;;
17566;SDS011;8901;52.088;5.084;2023-02-28T03:36:39;6.90;;;6.30;;
17566;SDS011;8901;52.088;5.084;2023-02-28T03:39:11;8.53;;;6.77;;
17566;SDS011;8901;52.088;5.084;2023-02-28T03:41:40;7.70;;;6.80;;
17566;SDS011;8901;52.088;5.084;2023-02-28T03:44:11;7.77;;;6.97;;
17566;SDS011;8901;52.088;5.084;2023-02-28T03:46:41;8.20;;;6.97;;
17566;SDS011;8901;52.088;5.084;2023-02-28T03:49:12;8.00;;;6.80;;
17566;SDS011;8901;52.088;5.084;2023-02-28T03:51:42;8.10;;;7.40;;
17566;SDS011;8901;52.088;5.084;2023-02-28T03:54:11;8.70;;;7.00;;
17566;SDS011;8901;52.088;5.084;2023-02-28T03:56:40;7.23;;;6.53;;
17566;SDS011;8901;52.088;5.084;2023-02-28T03:59:10;7.50;;;6.90;;
17566;SDS011;8901;52.088;5.084;2023-02-28T04:01:40;7.30;;;6.70;;
17566;SDS011;8901;52.088;5.084;2023-02-28T04:04:08;10.33;;;7.23;;
17566;SDS011;8901;52.088;5.084;2023-02-28T04:06:36;8.40;;;7.30;;
17566;SDS011;8901;52.088;5.084;2023-02-28T04:09:05;7.97;;;7.27;;
17566;SDS011;8901;52.088;5.084;2023-02-28T04:11:34;11.20;;;7.43;;
17566;SDS011;8901;52.088;5.084;2023-02-28T04:14:01;8.27;;;7.20;;
17566;SDS011;8901;52.088;5.084;2023-02-28T04:16:29;10.03;;;7.47;;
17566;SDS011;8901;52.088;5.084;2023-02-28T04:18:56;8.27;;;7.40;;
17566;SDS011;8901;52.088;5.084;2023-02-28T04:21:27;7.60;;;6.93;;
17566;SDS011;8901;52.088;5.084;2023-02-28T04:23:54;7.40;;;6.90;;
17566;SDS011;8901;52.088;5.084;2023-02-28T04:26:27;7.73;;;6.93;;
17566;SDS011;8901;52.088;5.084;2023-02-28T04:28:54;8.43;;;7.73;;
17566;SDS011;8901;52.088;5.084;2023-02-28T04:31:22;8.63;;;7.83;;
17566;SDS011;8901;52.088;5.084;2023-02-28T04:33:49;8.87;;;8.10;;
17566;SDS011;8901;52.088;5.084;2023-02-28T04:36:16;8.50;;;7.90;;
17566;SDS011;8901;52.088;5.084;2023-02-28T04:38:44;9.07;;;8.27;;
17566;SDS011;8901;52.088;5.084;2023-02-28T04:41:11;9.83;;;8.93;;
17566;SDS011;8901;52.088;5.084;2023-02-28T04:43:40;9.10;;;8.30;;
17566;SDS011;8901;52.088;5.084;2023-02-28T04:46:07;9.87;;;8.87;;
17566;SDS011;8901;52.088;5.084;2023-02-28T04:48:36;10.13;;;9.13;;
17566;SDS011;8901;52.088;5.084;2023-02-28T04:51:05;10.60;;;9.70;;
17566;SDS011;8901;52.088;5.084;2023-02-28T04:53:33;9.10;;;8.40;;
17566;SDS011;8901;52.088;5.084;2023-02-28T04:56:00;9.73;;;9.03;;
17566;SDS011;8901;52.088;5.084;2023-02-28T04:58:27;12.80;;;11.70;;
17566;SDS011;8901;52.088;5.084;2023-02-28T05:01:01;12.03;;;11.23;;
17566;SDS011;8901;52.088;5.084;2023-02-28T05:03:28;11.00;;;10.10;;
17566;SDS011;8901;52.088;5.084;2023-02-28T05:05:56;11.47;;;10.57;;
17566;SDS011;8901;52.088;5.084;2023-02-28T05:08:23;14.27;;;13.30;;
17566;SDS011;8901;52.088;5.084;2023-02-28T05:10:50;14.57;;;13.43;;
17566;SDS011;8901;52.088;5.084;2023-02-28T05:13:17;13.50;;;12.60;;
17566;SDS011;8901;52.088;5.084;2023-02-28T05:15:44;15.87;;;14.97;;
17566;SDS011;8901;52.088;5.084;2023-02-28T05:18:13;17.83;;;16.53;;
17566;SDS011;8901;52.088;5.084;2023-02-28T05:20:40;20.50;;;19.20;;
17566;SDS011;8901;52.088;5.084;2023-02-28T05:23:07;17.00;;;16.00;;
17566;SDS011;8901;52.088;5.084;2023-02-28T05:25:35;18.30;;;17.30;;
17566;SDS011;8901;52.088;5.084;2023-02-28T05:28:02;20.57;;;19.37;;
17566;SDS011;8901;52.088;5.084;2023-02-28T05:30:29;19.10;;;17.90;;
17566;SDS011;8901;52.088;5.084;2023-02-28T05:32:57;19.80;;;18.60;;
17566;SDS011;8901;52.088;5.084;2023-02-28T05:35:25;20.07;;;18.77;;
17566;SDS011;8901;52.088;5.084;2023-02-28T05:37:53;20.17;;;18.97;;
17566;SDS011;8901;52.088;5.084;2023-02-28T05:40:20;20.30;;;19.10;;
17566;SDS011;8901;52.088;5.084;2023-02-28T05:42:47;21.27;;;19.97;;
17566;SDS011;8901;52.088;5.084;2023-02-28T05:45:14;18.40;;;17.27;;
17566;SDS011;8901;52.088;5.084;2023-02-28T05:47:42;17.63;;;16.53;;
17566;SDS011;8901;52.088;5.084;2023-02-28T05:50:09;15.07;;;14.10;;
17566;SDS011;8901;52.088;5.084;2023-02-28T05:52:38;17.60;;;16.30;;
17566;SDS011;8901;52.088;5.084;2023-02-28T05:55:06;20.77;;;19.50;;
17566;SDS011;8901;52.088;5.084;2023-02-28T05:57:33;22.63;;;21.23;;
17566;SDS011;8901;52.088;5.084;2023-02-28T06:00:00;19.17;;;17.97;;
17566;SDS011;8901;52.088;5.084;2023-02-28T06:02:29;19.63;;;18.37;;
17566;SDS011;8901;52.088;5.084;2023-02-28T06:04:56;20.43;;;19.13;;
17566;SDS011;8901;52.088;5.084;2023-02-28T06:07:23;21.10;;;19.80;;
17566;SDS011;8901;52.088;5.084;2023-02-28T06:09:51;22.20;;;20.90;;
17566;SDS011;8901;52.088;5.084;2023-02-28T06:12:19;20.97;;;19.67;;
17566;SDS011;8901;52.088;5.084;2023-02-28T06:14:46;22.13;;;20.80;;
17566;SDS011;8901;52.088;5.084;2023-02-28T06:17:13;21.70;;;20.30;;
17566;SDS011;8901;52.088;5.084;2023-02-28T06:19:40;21.90;;;20.60;;
17566;SDS011;8901;52.088;5.084;2023-02-28T06:22:07;23.07;;;21.57;;
17566;SDS011;8901;52.088;5.084;2023-02-28T06:24:35;22.10;;;20.50;;
17566;SDS011;8901;52.088;5.084;2023-02-28T06:27:03;22.27;;;20.87;;
17566;SDS011;8901;52.088;5.084;2023-02-28T06:29:31;21.43;;;20.03;;
17566;SDS011;8901;52.088;5.084;2023-02-28T06:31:58;21.17;;;19.83;;
17566;SDS011;8901;52.088;5.084;2023-02-28T06:34:25;21.27;;;19.77;;
17566;SDS011;8901;52.088;5.084;2023-02-28T06:36:52;20.13;;;18.83;;
17566;SDS011;8901;52.088;5.084;2023-02-28T06:39:20;20.07;;;18.77;;
17566;SDS011;8901;52.088;5.084;2023-02-28T06:41:47;19.17;;;17.97;;
17566;SDS011;8901;52.088;5.084;2023-02-28T06:44:17;19.90;;;18.70;;
17566;SDS011;8901;52.088;5.084;2023-02-28T06:46:45;18.50;;;17.33;;
17566;SDS011;8901;52.088;5.084;2023-02-28T06:49:12;18.67;;;17.33;;
17566;SDS011;8901;52.088;5.084;2023-02-28T06:51:42;17.87;;;16.63;;
17566;SDS011;8901;52.088;5.084;2023-02-28T06:54:10;17.40;;;16.30;;
17566;SDS011;8901;52.088;5.084;2023-02-28T06:56:37;17.93;;;16.73;;
17566;SDS011;8901;52.088;5.084;2023-02-28T06:59:04;16.37;;;15.20;;
17566;SDS011;8901;52.088;5.084;2023-02-28T07:01:33;16.60;;;15.37;;
17566;SDS011;8901;52.088;5.084;2023-02-28T07:04:00;15.00;;;14.00;;
17566;SDS011;8901;52.088;5.084;2023-02-28T07:06:27;15.83;;;14.53;;
17566;SDS011;8901;52.088;5.084;2023-02-28T07:08:55;14.60;;;13.30;;
17566;SDS011;8901;52.088;5.084;2023-02-28T07:11:23;13.80;;;12.90;;
17566;SDS011;8901;52.088;5.084;2023-02-28T07:13:51;13.23;;;12.10;;
17566;SDS011;8901;52.088;5.084;2023-02-28T07:16:18;11.67;;;10.73;;
17566;SDS011;8901;52.088;5.084;2023-02-28T07:18:46;11.87;;;10.77;;
17566;SDS011;8901;52.088;5.084;2023-02-28T07:21:14;10.70;;;9.80;;
17566;SDS011;8901;52.088;5.084;2023-02-28T07:23:41;11.10;;;10.10;;
17566;SDS011;8901;52.088;5.084;2023-02-28T07:26:10;10.63;;;9.73;;
17566;SDS011;8901;52.088;5.084;2023-02-28T07:28:39;9.97;;;9.07;;
17566;SDS011;8901;52.088;5.084;2023-02-28T07:31:07;10.30;;;7.93;;
17566;SDS011;8901;52.088;5.084;2023-02-28T07:33:35;10.63;;;8.40;;
17566;SDS011;8901;52.088;5.084;2023-02-28T07:36:04;12.20;;;8.77;;
17566;SDS011;8901;52.088;5.084;2023-02-28T07:38:33;8.70;;;7.77;;
17566;SDS011;8901;52.088;5.084;2023-02-28T07:41:00;8.67;;;7.97;;
17566;SDS011;8901;52.088;5.084;2023-02-28T07:43:29;9.23;;;8.23;;
17566;SDS011;8901;52.088;5.084;2023-02-28T07:46:00;10.93;;;8.43;;
17566;SDS011;8901;52.088;5.084;2023-02-28T07:48:27;10.03;;;8.40;;
17566;SDS011;8901;52.088;5.084;2023-02-28T07:50:54;8.57;;;7.33;;
17566;SDS011;8901;52.088;5.084;2023-02-28T07:53:23;9.23;;;7.77;;
17566;SDS011;8901;52.088;5.084;2023-02-28T07:55:50;9.10;;;8.20;;
17566;SDS011;8901;52.088;5.084;2023-02-28T07:58:18;9.40;;;7.53;;
17566;SDS011;8901;52.088;5.084;2023-02-28T08:00:45;10.67;;;7.43;;
17566;SDS011;8901;52.088;5.084;2023-02-28T08:03:12;9.27;;;7.57;;
17566;SDS011;8901;52.088;5.084;2023-02-28T08:05:39;8.97;;;7.27;;
17566;SDS011;8901;52.088;5.084;2023-02-28T08:08:07;9.40;;;8.30;;
17566;SDS011;8901;52.088;5.084;2023-02-28T08:10:35;9.23;;;7.90;;
17566;SDS011;8901;52.088;5.084;2023-02-28T08:13:03;8.53;;;7.70;;
17566;SDS011;8901;52.088;5.084;2023-02-28T08:15:30;9.67;;;8.67;;
17566;SDS011;8901;52.088;5.084;2023-02-28T08:17:57;10.20;;;8.20;;
17566;SDS011;8901;52.088;5.084;2023-02-28T08:20:24;9.10;;;8.27;;
17566;SDS011;8901;52.088;5.084;2023-02-28T08:22:52;8.33;;;7.47;;
17566;SDS011;8901;52.088;5.084;2023-02-28T08:25:19;8.73;;;7.93;;
17566;SDS011;8901;52.088;5.084;2023-02-28T08:27:48;8.70;;;7.90;;
17566;SDS011;8901;52.088;5.084;2023-02-28T08:30:17;9.00;;;8.10;;
17566;SDS011;8901;52.088;5.084;2023-02-28T08:32:44;8.87;;;8.07;;
17566;SDS011;8901;52.088;5.084;2023-02-28T08:35:11;9.47;;;8.13;;
17566;SDS011;8901;52.088;5.084;2023-02-28T08:37:38;12.00;;;8.07;;
17566;SDS011;8901;52.088;5.084;2023-02-28T08:40:06;9.33;;;8.40;;
17566;SDS011;8901;52.088;5.084;2023-02-28T08:42:33;9.60;;;8.60;;
17566;SDS011;8901;52.088;5.084;2023-02-28T08:45:02;9.87;;;8.87;;
17566;SDS011;8901;52.088;5.084;2023-02-28T08:47:29;8.00;;;7.20;;
17566;SDS011;8901;52.088;5.084;2023-02-28T08:49:57;8.77;;;7.97;;
17566;SDS011;8901;52.088;5.084;2023-02-28T08:52:24;9.30;;;7.97;;
17566;SDS011;8901;52.088;5.084;2023-02-28T08:54:51;7.83;;;6.93;;
17566;SDS011;8901;52.088;5.084;2023-02-28T08:57:18;7.57;;;6.83;;
17566;SDS011;8901;52.088;5.084;2023-02-28T08:59:45;8.50;;;7.80;;
17566;SDS011;8901;52.088;5.084;2023-02-28T09:02:14;7.20;;;6.50;;
17566;SDS011;8901;52.088;5.084;2023-02-28T09:04:41;7.43;;;6.80;;
17566;SDS011;8901;52.088;5.084;2023-02-28T09:07:10;7.30;;;6.70;;
17566;SDS011;8901;52.088;5.084;2023-02-28T09:09:37;7.67;;;6.50;;
17566;SDS011;8901;52.088;5.084;2023-02-28T09:12:18;7.17;;;6.60;;
17566;SDS011;8901;52.088;5.084;2023-02-28T09:14:45;8.70;;;7.80;;
17566;SDS011;8901;52.088;5.084;2023-02-28T09:17:14;8.03;;;7.33;;
17566;SDS011;8901;52.088;5.084;2023-02-28T09:19:41;8.60;;;7.80;;
17566;SDS011;8901;52.088;5.084;2023-02-28T09:22:08;8.17;;;7.37;;
17566;SDS011;8901;52.088;5.084;2023-02-28T09:24:36;9.40;;;8.70;;
17566;SDS011;8901;52.088;5.084;2023-02-28T09:27:04;8.50;;;7.90;;
17566;SDS011;8901;52.088;5.084;2023-02-28T09:29:31;9.50;;;8.80;;
17566;SDS011;8901;52.088;5.084;2023-02-28T09:31:59;12.83;;;11.53;;
17566;SDS011;8901;52.088;5.084;2023-02-28T09:34:27;15.33;;;14.30;;
17566;SDS011;8901;52.088;5.084;2023-02-28T09:36:55;13.63;;;12.73;;
17566;SDS011;8901;52.088;5.084;2023-02-28T09:39:23;19.33;;;18.13;;
17566;SDS011;8901;52.088;5.084;2023-02-28T09:41:52;19.57;;;18.50;;
17566;SDS011;8901;52.088;5.084;2023-02-28T09:44:20;21.90;;;20.70;;
17566;SDS011;8901;52.088;5.084;2023-02-28T09:46:50;23.73;;;22.43;;
17566;SDS011;8901;52.088;5.084;2023-02-28T09:49:20;29.07;;;27.50;;
17566;SDS011;8901;52.088;5.084;2023-02-28T09:51:51;30.33;;;28.60;;
17566;SDS011;8901;52.088;5.084;2023-02-28T09:54:21;28.93;;;27.33;;
17566;SDS011;8901;52.088;5.084;2023-02-28T09:56:50;48.40;;;46.00;;
17566;SDS011;8901;52.088;5.084;2023-02-28T09:59:25;13.37;;;12.50;;
17566;SDS011;8901;52.088;5.084;2023-02-28T10:01:56;14.40;;;13.50;;
17566;SDS011;8901;52.088;5.084;2023-02-28T10:04:31;15.23;;;14.03;;
17566;SDS011;8901;52.088;5.084;2023-02-28T10:07:04;16.63;;;15.60;;
17566;SDS011;8901;52.088;5.084;2023-02-28T10:09:33;16.73;;;15.73;;
17566;SDS011;8901;52.088;5.084;2023-02-28T10:12:02;16.47;;;15.47;;
17566;SDS011;8901;52.088;5.084;2023-02-28T10:14:32;15.33;;;14.40;;
17566;SDS011;8901;52.088;5.084;2023-02-28T10:17:01;14.87;;;13.87;;
17566;SDS011;8901;52.088;5.084;2023-02-28T10:19:30;15.60;;;14.60;;
17566;SDS011;8901;52.088;5.084;2023-02-28T10:22:00;15.03;;;14.13;;
17566;SDS011;8901;52.088;5.084;2023-02-28T10:24:30;15.23;;;14.37;;
17566;SDS011;8901;52.088;5.084;2023-02-28T10:26:59;16.17;;;15.17;;
17566;SDS011;8901;52.088;5.084;2023-02-28T10:29:28;16.07;;;15.07;;
17566;SDS011;8901;52.088;5.084;2023-02-28T10:31:58;14.30;;;13.50;;
17566;SDS011;8901;52.088;5.084;2023-02-28T10:34:26;17.10;;;16.00;;
17566;SDS011;8901;52.088;5.084;2023-02-28T10:36:54;17.10;;;16.00;;
17566;SDS011;8901;52.088;5.084;2023-02-28T10:39:34;13.07;;;12.27;;
17566;SDS011;8901;52.088;5.084;2023-02-28T10:42:02;12.83;;;12.10;;
17566;SDS011;8901;52.088;5.084;2023-02-28T10:44:29;14.13;;;13.27;;
17566;SDS011;8901;52.088;5.084;2023-02-28T10:46:56;15.00;;;14.10;;
17566;SDS011;8901;52.088;5.084;2023-02-28T10:49:24;15.37;;;14.37;;
17566;SDS011;8901;52.088;5.084;2023-02-28T10:51:53;15.10;;;14.20;;
17566;SDS011;8901;52.088;5.084;2023-02-28T10:54:22;14.23;;;13.40;;
17566;SDS011;8901;52.088;5.084;2023-02-28T10:57:08;15.93;;;14.93;;
17566;SDS011;8901;52.088;5.084;2023-02-28T10:59:35;14.50;;;13.47;;
17566;SDS011;8901;52.088;5.084;2023-02-28T11:02:08;15.00;;;14.10;;
17566;SDS011;8901;52.088;5.084;2023-02-28T11:04:53;18.93;;;17.83;;
17566;SDS011;8901;52.088;5.084;2023-02-28T11:07:21;18.37;;;17.27;;
17566;SDS011;8901;52.088;5.084;2023-02-28T11:09:50;17.10;;;16.10;;
17566;SDS011;8901;52.088;5.084;2023-02-28T11:12:21;17.43;;;16.43;;
17566;SDS011;8901;52.088;5.084;2023-02-28T11:14:49;17.27;;;16.03;;
17566;SDS011;8901;52.088;5.084;2023-02-28T11:17:19;18.50;;;17.40;;
17566;SDS011;8901;52.088;5.084;2023-02-28T11:19:47;18.70;;;17.70;;
17566;SDS011;8901;52.088;5.084;2023-02-28T11:22:17;17.57;;;16.57;;
17566;SDS011;8901;52.088;5.084;2023-02-28T11:24:45;19.57;;;18.47;;
17566;SDS011;8901;52.088;5.084;2023-02-28T11:27:26;20.43;;;19.07;;
17566;SDS011;8901;52.088;5.084;2023-02-28T11:29:53;19.37;;;18.20;;
17566;SDS011;8901;52.088;5.084;2023-02-28T11:32:21;20.13;;;18.93;;
17566;SDS011;8901;52.088;5.084;2023-02-28T11:35:00;20.23;;;19.03;;
17566;SDS011;8901;52.088;5.084;2023-02-28T11:37:28;19.17;;;18.07;;
17566;SDS011;8901;52.088;5.084;2023-02-28T11:39:55;19.47;;;18.37;;
17566;SDS011;8901;52.088;5.084;2023-02-28T11:42:27;20.67;;;19.47;;
17566;SDS011;8901;52.088;5.084;2023-02-28T11:45:09;18.50;;;17.50;;
17566;SDS011;8901;52.088;5.084;2023-02-28T11:47:42;17.87;;;16.67;;
17566;SDS011;8901;52.088;5.084;2023-02-28T11:50:16;16.77;;;15.67;;
17566;SDS011;8901;52.088;5.084;2023-02-28T11:52:45;20.33;;;16.40;;
17566;SDS011;8901;52.088;5.084;2023-02-28T11:55:16;19.80;;;18.60;;
17566;SDS011;8901;52.088;5.084;2023-02-28T11:57:56;20.67;;;19.47;;
17566;SDS011;8901;52.088;5.084;2023-02-28T12:00:29;20.00;;;18.80;;
17566;SDS011;8901;52.088;5.084;2023-02-28T12:03:00;19.03;;;17.83;;
17566;SDS011;8901;52.088;5.084;2023-02-28T12:05:33;19.80;;;18.60;;
17566;SDS011;8901;52.088;5.084;2023-02-28T12:08:06;19.60;;;18.20;;
17566;SDS011;8901;52.088;5.084;2023-02-28T12:10:42;19.80;;;18.60;;
17566;SDS011;8901;52.088;5.084;2023-02-28T12:13:15;20.43;;;19.20;;
17566;SDS011;8901;52.088;5.084;2023-02-28T12:15:48;21.07;;;19.77;;
17566;SDS011;8901;52.088;5.084;2023-02-28T12:18:23;20.80;;;19.60;;
17566;SDS011;8901;52.088;5.084;2023-02-28T12:20:54;21.07;;;19.77;;
17566;SDS011;8901;52.088;5.084;2023-02-28T12:23:33;19.77;;;18.43;;
17566;SDS011;8901;52.088;5.084;2023-02-28T12:26:07;20.93;;;19.73;;
17566;SDS011;8901;52.088;5.084;2023-02-28T12:28:43;20.40;;;19.20;;
17566;SDS011;8901;52.088;5.084;2023-02-28T12:31:14;20.40;;;19.30;;
17566;SDS011;8901;52.088;5.084;2023-02-28T12:33:45;20.00;;;18.90;;
17566;SDS011;8901;52.088;5.084;2023-02-28T12:36:14;20.00;;;18.90;;
17566;SDS011;8901;52.088;5.084;2023-02-28T12:38:44;20.33;;;19.23;;
17566;SDS011;8901;52.088;5.084;2023-02-28T12:41:14;20.00;;;18.80;;
17566;SDS011;8901;52.088;5.084;2023-02-28T12:43:45;18.47;;;17.37;;
17566;SDS011;8901;52.088;5.084;2023-02-28T12:46:14;19.40;;;18.20;;
17566;SDS011;8901;52.088;5.084;2023-02-28T12:48:44;19.10;;;18.00;;
17566;SDS011;8901;52.088;5.084;2023-02-28T12:51:13;18.73;;;17.60;;
17566;SDS011;8901;52.088;5.084;2023-02-28T12:53:49;19.07;;;17.93;;
17566;SDS011;8901;52.088;5.084;2023-02-28T12:56:20;19.40;;;18.10;;
17566;SDS011;8901;52.088;5.084;2023-02-28T12:58:51;18.20;;;17.20;;
17566;SDS011;8901;52.088;5.084;2023-02-28T13:01:33;17.97;;;16.87;;
17566;SDS011;8901;52.088;5.084;2023-02-28T13:04:22;19.20;;;18.10;;
17566;SDS011;8901;52.088;5.084;2023-02-28T13:06:57;19.27;;;18.17;;
17566;SDS011;8901;52.088;5.084;2023-02-28T13:09:26;19.67;;;18.23;;
17566;SDS011;8901;52.088;5.084;2023-02-28T13:11:54;19.73;;;18.33;;
17566;SDS011;8901;52.088;5.084;2023-02-28T13:14:28;18.73;;;17.50;;
17566;SDS011;8901;52.088;5.084;2023-02-28T13:16:57;18.50;;;17.43;;
17566;SDS011;8901;52.088;5.084;2023-02-28T13:19:26;19.00;;;17.90;;
17566;SDS011;8901;52.088;5.084;2023-02-28T13:21:56;18.37;;;17.27;;
17566;SDS011;8901;52.088;5.084;2023-02-28T13:24:37;18.30;;;17.20;;
17566;SDS011;8901;52.088;5.084;2023-02-28T13:30:01;18.67;;;17.57;;
17566;SDS011;8901;52.088;5.084;2023-02-28T13:35:38;18.30;;;17.20;;
17566;SDS011;8901;52.088;5.084;2023-02-28T13:38:16;18.27;;;17.17;;
17566;SDS011;8901;52.088;5.084;2023-02-28T13:40:43;18.10;;;17.10;;
17566;SDS011;8901;52.088;5.084;2023-02-28T13:43:10;18.63;;;17.50;;
17566;SDS011;8901;52.088;5.084;2023-02-28T13:46:10;18.87;;;17.50;;
17566;SDS011;8901;52.088;5.084;2023-02-28T13:51:53;18.00;;;17.00;;
17566;SDS011;8901;52.088;5.084;2023-02-28T13:54:34;18.33;;;17.30;;
17566;SDS011;8901;52.088;5.084;2023-02-28T13:57:06;19.53;;;18.17;;
17566;SDS011;8901;52.088;5.084;2023-02-28T13:59:37;18.33;;;17.20;;
17566;SDS011;8901;52.088;5.084;2023-02-28T14:04:53;17.83;;;16.83;;
17566;SDS011;8901;52.088;5.084;2023-02-28T14:07:25;18.73;;;17.63;;
17566;SDS011;8901;52.088;5.084;2023-02-28T14:09:59;17.83;;;16.83;;
17566;SDS011;8901;52.088;5.084;2023-02-28T14:15:26;17.93;;;16.83;;
17566;SDS011;8901;52.088;5.084;2023-02-28T14:17:55;17.93;;;16.83;;
17566;SDS011;8901;52.088;5.084;2023-02-28T14:20:31;18.47;;;17.03;;
17566;SDS011;8901;52.088;5.084;2023-02-28T14:23:04;18.43;;;17.23;;
17566;SDS011;8901;52.088;5.084;2023-02-28T14:25:34;17.60;;;16.60;;
17566;SDS011;8901;52.088;5.084;2023-02-28T14:28:07;17.70;;;16.50;;
17566;SDS011;8901;52.088;5.084;2023-02-28T14:30:51;17.87;;;16.87;;
17566;SDS011;8901;52.088;5.084;2023-02-28T14:33:35;17.50;;;16.50;;
17566;SDS011;8901;52.088;5.084;2023-02-28T14:36:08;17.37;;;16.23;;
17566;SDS011;8901;52.088;5.084;2023-02-28T14:38:40;17.50;;;16.40;;
17566;SDS011;8901;52.088;5.084;2023-02-28T14:41:13;17.77;;;16.57;;
17566;SDS011;8901;52.088;5.084;2023-02-28T14:43:47;17.73;;;16.73;;
17566;SDS011;8901;52.088;5.084;2023-02-28T14:46:16;18.43;;;17.37;;
17566;SDS011;8901;52.088;5.084;2023-02-28T14:48:45;17.97;;;16.80;;
17566;SDS011;8901;52.088;5.084;2023-02-28T14:51:13;18.50;;;17.20;;
17566;SDS011;8901;52.088;5.084;2023-02-28T14:53:48;18.07;;;16.87;;
17566;SDS011;8901;52.088;5.084;2023-02-28T14:56:22;17.27;;;16.17;;
17566;SDS011;8901;52.088;5.084;2023-02-28T14:58:53;18.20;;;17.10;;
17566;SDS011;8901;52.088;5.084;2023-02-28T15:01:21;17.17;;;16.17;;
17566;SDS011;8901;52.088;5.084;2023-02-28T15:03:56;18.00;;;17.00;;
17566;SDS011;8901;52.088;5.084;2023-02-28T15:06:24;18.53;;;17.43;;
17566;SDS011;8901;52.088;5.084;2023-02-28T15:11:47;17.70;;;16.43;;
17566;SDS011;8901;52.088;5.084;2023-02-28T15:14:15;17.50;;;16.40;;
17566;SDS011;8901;52.088;5.084;2023-02-28T15:16:44;18.10;;;16.90;;
17566;SDS011;8901;52.088;5.084;2023-02-28T15:19:13;17.93;;;16.83;;
17566;SDS011;8901;52.088;5.084;2023-02-28T15:21:42;16.07;;;15.17;;